EDSB/FKB METAR and TAF weather

Enter ICAO airport designator
Station Type Date Time Source
EDSB METAR 2018/04/23 11:20 UTC NOAA

EDSB 231120Z 20011KT 9999 -SHRA FEW034 SCT042 BKN080 17/15 Q1018


Station Type Date Time Source
EDSB Decoded METAR 2018/04/23 11:20 UTC NOAA

Karlsruhe, Baden Wurttemberg, Germany (EDSB) 48-46-43N 008-04-47E
Apr 23, 2018 - 07:20 AM EDT / 2018.04.23 1120 UTC
Wind: from the SSW (200 degrees) at 13 MPH (11 KT):0
Visibility: greater than 7 mile(s):0
Sky conditions: mostly cloudy
Weather: light rain showers
Temperature: 62 F (17 C)
Dew Point: 59 F (15 C)
Relative Humidity: 88%
Pressure (altimeter): 30.06 in. Hg (1018 hPa)
ob: EDSB 231120Z 20011KT 9999 -SHRA FEW034 SCT042 BKN080 17/15 Q1018
cycle: 11

Station Type Date Time Source
EDSB TAF 2018/04/23 23:00 UTC NOAA

TAF EDSB 222354Z 2223/2318 CNL


Example: see airport list